Terminal Aerodrome Forecast
Issued by NWS Caribou, ME

Home | Current Version | Previous Version | Text Only | Print | Product List | Glossary On
Versions: 1 2 3 4 5 6 7 8 9 10 11 12 13 14
069
FTUS41 KCAR 240527
TAFCAR
TAF
KCAR 240527Z 2406/2506 VRB03KT P6SM BKN050
     FM241500 24010KT P6SM BKN040
     FM242300 31006KT P6SM SCT250
     FM250300 34005KT P6SM BKN070=

USA.gov is the U.S. government's official web portal to all federal, state and local government web resources and services.